West Columbia, Texas
Current Conditions -  °F | °C
As of 10:53 PM on Tuesday 25 Nov 2014 (Local Time) from KLBX Reporting Station
Clear Clear  
Wind Chill: 44°   Ceiling: Unl
Heat Index: 44°   Visibility: 10mi
Dew Point: 42°   Wind: 3mph
Humidity: 93%   Direction: 190°S
Pressure: 30.26"   Gusts: NA
Location:  29.14°N, 95.65°W
Report Text: KLBX 260453Z AUTO 19003KT 10SM CLR 07/06 A3026 RMK AO2 SLP247 T00670056
Loading
Personal Weather Stations






























Interactive Weather Map New forecast layout! Learn more

10-Day Weather Forecast

Advertisements
Track Severe Weather on mobile